Time;durP1;ratioP1;P1;durP2;ratioP2;P2;SDS_P1;SDS_P2;PMS_P1;PMS_P2;Temp;Humidity;BMP_temperature;BMP_pressure;BME280_temperature;BME280_humidity;BME280_pressure;Samples;Min_cycle;Max_cycle;Signal;HPM_P1;HPM_P2
2021/07/30 00:00:04;;;;;;;5.38;2.40;;;22.00;86.20;;;;;;4930571;29;20123;-80
2021/07/30 00:02:30;;;;;;;4.68;2.63;;;22.00;86.20;;;;;;4929927;28;20016;-82
2021/07/30 00:04:56;;;;;;;5.95;2.60;;;22.00;86.20;;;;;;4930792;29;20102;-81
2021/07/30 00:07:21;;;;;;;4.80;2.30;;;22.00;86.20;;;;;;4932245;29;20505;-79
2021/07/30 00:09:47;;;;;;;4.43;2.58;;;22.00;86.20;;;;;;4933457;29;20506;-81
2021/07/30 00:12:13;;;;;;;5.05;2.65;;;22.00;86.20;;;;;;4933618;28;20020;-82
2021/07/30 00:14:38;;;;;;;6.18;2.33;;;22.00;86.20;;;;;;4933262;29;20398;-79
2021/07/30 00:17:04;;;;;;;4.00;2.03;;;22.00;86.30;;;;;;4933296;29;20043;-83
2021/07/30 00:19:30;;;;;;;5.50;2.47;;;22.00;86.30;;;;;;4931972;29;20099;-82
2021/07/30 00:21:55;;;;;;;4.97;2.38;;;22.00;86.20;;;;;;4933885;28;20024;-82
2021/07/30 00:24:21;;;;;;;4.68;2.35;;;22.00;86.30;;;;;;4933394;28;20035;-80
2021/07/30 00:26:48;;;;;;;5.00;2.38;;;22.00;86.20;;;;;;4933153;29;20407;-79
2021/07/30 00:29:14;;;;;;;5.78;2.70;;;22.00;86.10;;;;;;4933286;29;20542;-82
2021/07/30 00:31:40;;;;;;;4.90;1.95;;;22.00;86.10;;;;;;4931525;29;20031;-82
2021/07/30 00:34:05;;;;;;;5.18;2.63;;;22.00;86.10;;;;;;4933254;29;20039;-80
2021/07/30 00:36:31;;;;;;;4.20;2.42;;;22.00;86.10;;;;;;4933085;28;20027;-79
2021/07/30 00:38:57;;;;;;;4.78;2.80;;;22.00;86.10;;;;;;4933550;28;20110;-81
2021/07/30 00:41:23;;;;;;;4.63;2.60;;;22.00;86.00;;;;;;4933433;29;20038;-80
2021/07/30 00:43:49;;;;;;;4.38;2.08;;;21.90;85.80;;;;;;4932902;29;20031;-78
2021/07/30 00:46:15;;;;;;;5.10;2.38;;;21.90;85.90;;;;;;4933164;28;20555;-79
2021/07/30 00:48:42;;;;;;;3.72;2.35;;;21.90;85.80;;;;;;4932882;29;20419;-79
2021/07/30 00:51:08;;;;;;;5.30;2.63;;;21.90;85.80;;;;;;4933162;29;20031;-79
2021/07/30 00:53:34;;;;;;;4.30;2.15;;;21.90;85.80;;;;;;4932814;29;20027;-80
2021/07/30 00:55:59;;;;;;;6.45;2.83;;;21.90;85.80;;;;;;4932852;28;20396;-81
2021/07/30 00:58:28;;;;;;;4.53;2.30;;;21.90;86.40;;;;;;4931870;28;20036;-81
2021/07/30 01:00:56;;;;;;;3.60;2.00;;;21.90;86.50;;;;;;4933054;29;20028;-83
2021/07/30 01:03:22;;;;;;;4.93;2.85;;;21.90;87.00;;;;;;4932934;28;20031;-79
2021/07/30 01:05:49;;;;;;;3.83;2.03;;;21.90;87.40;;;;;;4932760;28;20028;-79
2021/07/30 01:08:15;;;;;;;5.60;2.42;;;21.90;87.50;;;;;;4932973;29;20392;-79
2021/07/30 01:10:41;;;;;;;4.15;2.35;;;21.90;87.80;;;;;;4932710;29;20035;-80
2021/07/30 01:13:06;;;;;;;6.47;2.58;;;21.90;87.90;;;;;;4932544;29;20028;-79
2021/07/30 01:15:32;;;;;;;5.07;2.25;;;21.90;87.90;;;;;;4932264;28;20051;-80
2021/07/30 01:17:58;;;;;;;6.32;2.50;;;21.90;88.00;;;;;;4932924;29;20094;-79
2021/07/30 01:20:25;;;;;;;6.75;2.47;;;21.90;88.10;;;;;;4947542;28;20059;-80
2021/07/30 01:22:56;;;;;;;4.38;2.78;;;21.90;88.20;;;;;;4932531;28;20055;-79
2021/07/30 01:25:23;;;;;;;3.80;2.08;;;21.90;88.20;;;;;;4932436;29;20024;-78
2021/07/30 01:27:50;;;;;;;4.63;2.33;;;21.90;88.20;;;;;;4931086;29;20032;-79
2021/07/30 01:30:18;;;;;;;3.72;2.15;;;21.90;88.20;;;;;;4932493;29;20078;-79
2021/07/30 01:32:44;;;;;;;5.47;2.40;;;21.90;88.20;;;;;;4932209;29;20116;-79
2021/07/30 01:35:10;;;;;;;5.20;2.45;;;21.90;88.20;;;;;;4932542;28;20467;-80
2021/07/30 01:37:36;;;;;;;5.47;2.80;;;21.90;88.20;;;;;;4931926;29;20074;-81
2021/07/30 01:40:12;;;;;;;4.43;2.13;;;21.80;88.10;;;;;;4932244;29;20534;-78
2021/07/30 01:42:39;;;;;;;5.68;2.28;;;21.80;88.00;;;;;;4932090;29;20027;-79
2021/07/30 01:45:06;;;;;;;5.47;2.08;;;21.90;88.00;;;;;;4932219;28;20023;-79
2021/07/30 01:47:34;;;;;;;5.13;2.17;;;21.80;88.00;;;;;;4931786;29;20036;-79
2021/07/30 01:50:00;;;;;;;4.80;2.13;;;21.90;88.00;;;;;;4931986;28;20434;-79
2021/07/30 01:52:26;;;;;;;5.60;2.38;;;21.90;87.90;;;;;;4932195;28;20031;-77
2021/07/30 01:54:52;;;;;;;3.92;2.20;;;21.80;87.70;;;;;;4931949;29;20040;-78
2021/07/30 01:57:18;;;;;;;4.38;2.90;;;21.80;87.70;;;;;;4930685;28;20043;-78
2021/07/30 01:59:44;;;;;;;5.03;2.53;;;21.80;87.70;;;;;;4931871;29;20020;-77
2021/07/30 02:02:09;;;;;;;5.00;2.45;;;21.80;87.70;;;;;;4932094;29;20039;-78
2021/07/30 02:04:35;;;;;;;6.68;2.67;;;21.80;87.70;;;;;;4931678;29;20509;-78
2021/07/30 02:07:00;;;;;;;3.97;2.20;;;21.80;87.60;;;;;;4930721;28;20035;-77
2021/07/30 02:09:30;;;;;;;5.63;2.20;;;21.80;87.60;;;;;;4932222;28;20028;-78
2021/07/30 02:11:56;;;;;;;4.05;2.35;;;21.80;87.40;;;;;;4932147;28;20111;-78
2021/07/30 02:14:25;;;;;;;5.03;2.38;;;21.80;87.40;;;;;;4931853;29;20107;-77
2021/07/30 02:16:58;;;;;;;5.10;2.30;;;21.80;87.40;;;;;;4930474;28;20123;-78
2021/07/30 02:19:24;;;;;;;3.65;2.17;;;21.80;87.30;;;;;;4930417;28;20036;-77
2021/07/30 02:21:52;;;;;;;4.18;2.53;;;21.70;87.20;;;;;;4931411;28;20035;-78
2021/07/30 02:24:19;;;;;;;5.25;2.60;;;21.80;87.20;;;;;;4931561;29;20027;-78
2021/07/30 02:26:45;;;;;;;4.78;2.50;;;21.80;87.20;;;;;;4931537;28;20027;-78
2021/07/30 02:29:10;;;;;;;5.65;3.03;;;21.70;87.10;;;;;;4931071;28;20024;-77
2021/07/30 02:31:37;;;;;;;6.28;2.60;;;21.70;87.00;;;;;;4931387;28;20024;-77
2021/07/30 02:34:02;;;;;;;3.78;2.15;;;21.70;86.90;;;;;;4931452;29;20024;-77
2021/07/30 02:36:28;;;;;;;5.18;2.28;;;21.70;86.90;;;;;;4931782;29;20032;-78
2021/07/30 02:38:54;;;;;;;4.53;2.30;;;21.70;86.80;;;;;;4931406;29;20036;-77
2021/07/30 02:41:19;;;;;;;4.90;2.78;;;21.70;86.80;;;;;;4931734;29;20027;-77
2021/07/30 02:43:46;;;;;;;4.78;2.47;;;21.70;86.80;;;;;;4931290;29;20502;-77
2021/07/30 02:46:16;;;;;;;4.93;2.30;;;21.70;86.70;;;;;;4931455;29;20193;-79
2021/07/30 02:48:42;;;;;;;4.55;2.25;;;21.70;86.60;;;;;;4931197;29;20058;-77
2021/07/30 02:51:08;;;;;;;4.57;2.50;;;21.70;86.70;;;;;;4931437;29;20031;-79
2021/07/30 02:53:33;;;;;;;4.88;2.80;;;21.70;86.60;;;;;;4931060;29;20047;-78
2021/07/30 02:55:59;;;;;;;5.72;2.65;;;21.70;86.60;;;;;;4931194;28;20063;-80
2021/07/30 02:58:25;;;;;;;6.85;2.55;;;21.70;86.50;;;;;;4946209;28;20032;-78
2021/07/30 03:00:51;;;;;;;5.95;2.92;;;21.70;86.50;;;;;;4929516;28;20035;-80
2021/07/30 03:03:16;;;;;;;3.95;2.30;;;21.70;86.30;;;;;;4931059;29;20063;-79
2021/07/30 03:05:42;;;;;;;4.28;2.40;;;21.70;86.30;;;;;;4930936;29;20101;-79
2021/07/30 03:08:08;;;;;;;4.03;2.42;;;21.70;86.20;;;;;;4931076;28;20107;-79
2021/07/30 03:10:33;;;;;;;7.80;2.72;;;21.70;86.30;;;;;;4930862;28;20036;-78
2021/07/30 03:12:59;;;;;;;3.65;2.00;;;21.70;86.40;;;;;;4931038;28;20046;-78
2021/07/30 03:15:24;;;;;;;4.78;2.30;;;21.70;86.20;;;;;;4931430;29;20111;-78
2021/07/30 03:17:50;;;;;;;4.68;2.25;;;21.60;86.10;;;;;;4930752;29;20441;-79
2021/07/30 03:20:16;;;;;;;5.78;2.42;;;21.70;86.10;;;;;;4930880;29;20024;-82
2021/07/30 03:22:41;;;;;;;7.15;2.70;;;21.60;85.90;;;;;;4930479;29;20107;-82
2021/07/30 03:25:07;;;;;;;5.15;2.38;;;21.60;85.90;;;;;;4930975;28;20065;-82
2021/07/30 03:27:33;;;;;;;4.38;2.30;;;21.60;85.90;;;;;;4930689;29;20028;-84
2021/07/30 03:29:59;;;;;;;3.97;2.42;;;21.60;85.70;;;;;;4930771;29;20055;-82
2021/07/30 03:32:24;;;;;;;4.72;2.38;;;21.60;85.80;;;;;;4931212;28;20460;-81
2021/07/30 03:34:50;;;;;;;4.60;2.45;;;21.60;85.70;;;;;;4930579;28;20102;-80
2021/07/30 03:37:16;;;;;;;4.35;2.13;;;21.60;85.60;;;;;;4930514;29;20086;-81
2021/07/30 03:39:42;;;;;;;6.05;2.83;;;21.60;85.70;;;;;;4930664;29;20036;-82
2021/07/30 03:42:08;;;;;;;4.00;2.45;;;21.60;85.60;;;;;;4930746;28;20118;-82
2021/07/30 03:44:35;;;;;;;5.65;2.67;;;21.60;85.60;;;;;;4933963;29;20171;-78
2021/07/30 03:47:01;;;;;;;3.95;2.42;;;21.60;85.60;;;;;;4934020;29;20031;-82
2021/07/30 03:49:26;;;;;;;4.00;2.45;;;21.60;85.60;;;;;;4934207;28;20042;-82
2021/07/30 03:51:52;;;;;;;5.80;1.98;;;21.60;85.60;;;;;;4933470;29;20032;-80
2021/07/30 03:54:18;;;;;;;4.47;2.65;;;21.60;85.50;;;;;;4948650;28;20117;-81
2021/07/30 03:56:44;;;;;;;3.95;2.05;;;21.60;85.40;;;;;;4933567;29;20032;-79
2021/07/30 03:59:11;;;;;;;5.97;2.60;;;21.60;85.40;;;;;;4933603;28;20048;-82
2021/07/30 04:01:37;;;;;;;3.90;2.17;;;21.50;85.50;;;;;;4933642;28;20020;-83
2021/07/30 04:04:03;;;;;;;5.15;2.90;;;21.60;85.60;;;;;;4933776;29;20105;-80
2021/07/30 04:06:29;;;;;;;3.72;2.17;;;21.60;85.50;;;;;;4933559;28;20126;-82
2021/07/30 04:08:54;;;;;;;5.93;2.78;;;21.60;85.40;;;;;;4933937;28;20059;-82
2021/07/30 04:11:20;;;;;;;4.18;2.55;;;21.50;85.50;;;;;;4933602;29;20027;-80
2021/07/30 04:13:46;;;;;;;5.60;2.72;;;21.50;85.30;;;;;;4933165;28;20034;-78
2021/07/30 04:16:12;;;;;;;3.65;2.33;;;21.50;85.20;;;;;;4933690;28;20107;-81
2021/07/30 04:18:39;;;;;;;8.07;2.47;;;21.50;85.20;;;;;;4933201;28;20040;-82
2021/07/30 04:21:05;;;;;;;5.85;2.03;;;21.50;85.30;;;;;;4933137;28;20046;-80
2021/07/30 04:23:31;;;;;;;8.85;2.28;;;21.50;85.20;;;;;;4931965;29;20031;-79
2021/07/30 04:25:57;;;;;;;5.10;2.67;;;21.50;85.10;;;;;;4933788;29;20093;-82
2021/07/30 04:28:23;;;;;;;4.78;2.10;;;21.50;85.10;;;;;;4933490;29;20034;-80
2021/07/30 04:30:49;;;;;;;4.13;2.70;;;21.50;85.00;;;;;;4933159;28;20056;-80
2021/07/30 04:33:14;;;;;;;3.13;2.08;;;21.50;85.10;;;;;;4933333;29;20483;-79
2021/07/30 04:35:40;;;;;;;3.97;2.65;;;21.50;85.10;;;;;;4933169;29;20023;-81
2021/07/30 04:38:06;;;;;;;5.20;2.35;;;21.50;85.00;;;;;;4933080;29;20089;-80
2021/07/30 04:40:31;;;;;;;4.50;2.20;;;21.50;84.90;;;;;;4933175;29;20067;-82
2021/07/30 04:42:58;;;;;;;4.53;2.33;;;21.50;84.90;;;;;;4933472;28;20507;-80
2021/07/30 04:45:25;;;;;;;4.13;2.13;;;21.50;84.80;;;;;;4933363;29;20448;-82
2021/07/30 04:47:50;;;;;;;4.72;2.67;;;21.50;84.90;;;;;;4931454;29;20127;-82
2021/07/30 04:50:16;;;;;;;3.65;2.05;;;21.50;84.90;;;;;;4933089;29;20407;-78
2021/07/30 04:52:42;;;;;;;4.68;2.58;;;21.50;84.80;;;;;;4932268;28;20024;-82
2021/07/30 04:55:08;;;;;;;5.43;2.70;;;21.40;84.80;;;;;;4933015;29;20427;-81
2021/07/30 04:57:34;;;;;;;4.25;2.20;;;21.50;84.90;;;;;;4932642;29;20034;-81
2021/07/30 04:59:59;;;;;;;5.35;2.42;;;21.50;84.80;;;;;;4932777;29;20105;-80
2021/07/30 05:02:25;;;;;;;4.18;2.08;;;21.40;84.80;;;;;;4933363;28;20024;-78
2021/07/30 05:04:54;;;;;;;5.60;2.50;;;21.50;84.80;;;;;;4932605;29;20043;-82
2021/07/30 05:07:21;;;;;;;3.58;2.30;;;21.40;84.80;;;;;;4932997;29;20027;-80
2021/07/30 05:09:47;;;;;;;4.28;1.92;;;21.40;84.80;;;;;;4932706;29;20071;-79
2021/07/30 05:12:12;;;;;;;4.22;2.22;;;21.40;84.70;;;;;;4932970;29;20483;-81
2021/07/30 05:14:38;;;;;;;4.68;2.45;;;21.40;84.70;;;;;;4932832;29;20027;-82
2021/07/30 05:17:04;;;;;;;5.25;2.30;;;21.40;84.60;;;;;;4932722;29;20392;-78
2021/07/30 05:19:29;;;;;;;4.97;2.25;;;21.40;84.60;;;;;;4932556;29;20035;-81
2021/07/30 05:21:55;;;;;;;5.03;2.10;;;21.40;84.60;;;;;;4932810;29;20028;-80
2021/07/30 05:24:21;;;;;;;4.30;2.28;;;21.40;84.60;;;;;;4932610;29;20032;-81
2021/07/30 05:26:46;;;;;;;6.70;2.80;;;21.40;84.60;;;;;;4932438;29;20023;-80
2021/07/30 05:29:12;;;;;;;4.47;2.28;;;21.40;84.60;;;;;;4932578;29;20495;-80
2021/07/30 05:31:38;;;;;;;4.63;2.20;;;21.40;84.60;;;;;;4932402;29;20107;-78
2021/07/30 05:34:03;;;;;;;4.00;1.95;;;21.40;84.60;;;;;;4932596;29;20034;-77
2021/07/30 05:36:29;;;;;;;4.18;2.15;;;21.40;84.60;;;;;;4932182;28;20028;-81
2021/07/30 05:38:54;;;;;;;6.78;2.22;;;21.40;84.60;;;;;;4932605;28;20147;-78
2021/07/30 05:41:20;;;;;;;4.05;1.98;;;21.40;84.50;;;;;;4931272;29;20031;-79
2021/07/30 05:43:47;;;;;;;4.35;2.50;;;21.40;84.50;;;;;;4932203;29;20427;-78
2021/07/30 05:46:14;;;;;;;4.07;2.05;;;21.40;84.50;;;;;;4932011;28;20518;-79
2021/07/30 05:48:40;;;;;;;3.08;1.77;;;21.40;84.50;;;;;;4932002;29;20040;-79
2021/07/30 05:51:05;;;;;;;4.00;1.95;;;21.40;84.50;;;;;;4932456;28;20090;-81
2021/07/30 05:53:31;;;;;;;3.90;2.00;;;21.40;84.50;;;;;;4932296;29;20071;-82
2021/07/30 05:55:56;;;;;;;5.50;2.50;;;21.40;84.50;;;;;;4932343;28;20126;-81
2021/07/30 05:58:25;;;;;;;4.40;2.20;;;21.40;84.50;;;;;;4931086;28;20511;-82
2021/07/30 06:00:51;;;;;;;6.05;2.60;;;21.30;84.40;;;;;;4931581;29;20027;-80
2021/07/30 06:03:16;;;;;;;4.13;2.28;;;21.40;84.50;;;;;;4932057;29;20047;-81
2021/07/30 06:05:42;;;;;;;4.18;2.00;;;21.40;84.40;;;;;;4930727;29;20028;-79
2021/07/30 06:08:07;;;;;;;3.47;1.88;;;21.30;84.40;;;;;;4930654;28;20036;-79
2021/07/30 06:10:33;;;;;;;4.70;2.40;;;21.30;84.30;;;;;;4931535;28;20031;-79
2021/07/30 06:13:02;;;;;;;4.95;2.47;;;21.30;84.20;;;;;;4931893;28;20054;-80
2021/07/30 06:15:28;;;;;;;3.90;1.88;;;21.30;84.20;;;;;;4930834;29;20016;-79
2021/07/30 06:17:53;;;;;;;4.68;2.20;;;21.30;84.20;;;;;;4932139;28;20040;-80
2021/07/30 06:20:20;;;;;;;2.70;1.75;;;21.30;84.30;;;;;;4931819;28;20023;-81
2021/07/30 06:22:46;;;;;;;3.53;1.83;;;21.30;84.10;;;;;;4931385;29;20032;-78
2021/07/30 06:25:13;;;;;;;3.53;1.65;;;21.30;84.20;;;;;;4931803;29;20030;-80
2021/07/30 06:27:39;;;;;;;4.32;1.95;;;21.30;84.30;;;;;;4931319;29;20027;-80
2021/07/30 06:30:07;;;;;;;3.13;1.63;;;21.30;84.30;;;;;;4931614;29;20031;-79
2021/07/30 06:32:39;;;;;;;4.43;2.10;;;21.30;84.20;;;;;;4931314;29;20031;-80
2021/07/30 06:35:06;;;;;;;4.50;1.73;;;21.30;84.30;;;;;;4931605;29;20111;-80
2021/07/30 06:37:33;;;;;;;3.65;1.80;;;21.30;84.20;;;;;;4931339;29;20028;-79
2021/07/30 06:40:00;;;;;;;4.20;2.10;;;21.30;84.20;;;;;;4931649;28;20071;-80
2021/07/30 06:42:25;;;;;;;4.97;2.50;;;21.30;84.10;;;;;;4931802;28;20073;-79
2021/07/30 06:44:51;;;;;;;4.13;1.90;;;21.30;84.10;;;;;;4931329;28;20040;-80
2021/07/30 06:47:19;;;;;;;3.72;1.80;;;21.30;84.10;;;;;;4931501;29;20042;-79
2021/07/30 06:49:45;;;;;;;2.60;1.52;;;21.30;84.10;;;;;;4930972;29;20040;-78
2021/07/30 06:52:10;;;;;;;3.75;2.03;;;21.30;84.10;;;;;;4931419;28;20031;-79
2021/07/30 06:54:37;;;;;;;2.83;1.70;;;21.30;84.10;;;;;;4931130;28;20028;-78
2021/07/30 06:57:03;;;;;;;3.58;2.03;;;21.30;84.10;;;;;;4931039;29;20159;-78
2021/07/30 06:59:29;;;;;;;3.92;2.15;;;21.30;84.10;;;;;;4931169;29;20035;-82
2021/07/30 07:01:55;;;;;;;2.97;1.60;;;21.30;84.10;;;;;;4931522;29;20024;-82
2021/07/30 07:04:21;;;;;;;3.72;2.05;;;21.30;84.10;;;;;;4931200;28;20070;-79
2021/07/30 07:06:47;;;;;;;3.13;1.85;;;21.30;84.10;;;;;;4931022;29;20032;-80
2021/07/30 07:09:17;;;;;;;2.72;1.63;;;21.30;84.10;;;;;;4929719;29;20032;-79
2021/07/30 07:11:43;;;;;;;3.75;2.15;;;21.30;84.10;;;;;;4930777;28;20085;-80
2021/07/30 07:14:08;;;;;;;3.28;1.50;;;21.30;84.10;;;;;;4931140;28;20496;-81
2021/07/30 07:16:34;;;;;;;3.35;1.60;;;21.30;84.10;;;;;;4932941;29;20390;-78
2021/07/30 07:19:00;;;;;;;4.07;2.03;;;21.30;84.10;;;;;;4934218;28;20172;-78
2021/07/30 07:21:25;;;;;;;3.35;1.60;;;21.30;84.10;;;;;;4934680;29;20565;-84
2021/07/30 07:23:51;;;;;;;5.40;2.13;;;21.30;84.10;;;;;;4934050;29;20533;-78
2021/07/30 07:26:18;;;;;;;4.35;2.08;;;21.30;84.10;;;;;;4934193;29;20084;-77
2021/07/30 07:28:45;;;;;;;1.80;1.17;;;21.30;84.10;;;;;;4934054;29;20050;-82
2021/07/30 07:31:10;;;;;;;3.35;2.25;;;21.30;84.20;;;;;;4934339;28;20034;-78
2021/07/30 07:33:36;;;;;;;4.72;2.08;;;21.20;84.10;;;;;;4933911;28;20106;-79
2021/07/30 07:36:02;;;;;;;4.60;1.75;;;21.30;84.20;;;;;;4934323;29;20074;-78
2021/07/30 07:38:28;;;;;;;5.00;1.60;;;21.30;84.20;;;;;;4934289;29;20032;-83
2021/07/30 07:40:53;;;;;;;2.80;1.63;;;21.20;84.20;;;;;;4934286;29;20070;-81
2021/07/30 07:43:19;;;;;;;3.53;1.55;;;21.30;84.30;;;;;;4934192;29;20479;-81
2021/07/30 07:45:45;;;;;;;4.13;1.60;;;21.30;84.30;;;;;;4933831;29;20098;-79
2021/07/30 07:48:10;;;;;;;3.65;1.70;;;21.30;84.30;;;;;;4934015;28;20032;-78
2021/07/30 07:50:36;;;;;;;3.78;1.90;;;21.30;84.40;;;;;;4933642;29;20028;-82
2021/07/30 07:53:10;;;;;;;3.72;1.70;;;21.30;84.40;;;;;;4934058;28;20043;-80
2021/07/30 07:55:36;;;;;;;3.50;1.67;;;21.30;84.40;;;;;;4933403;29;20020;-81
2021/07/30 07:58:02;;;;;;;3.08;1.80;;;21.30;84.40;;;;;;4933891;28;20043;-79
2021/07/30 08:00:27;;;;;;;2.58;1.58;;;21.30;84.40;;;;;;4934184;29;20070;-80
2021/07/30 08:02:53;;;;;;;4.82;1.83;;;21.30;84.40;;;;;;4933521;29;20032;-79
2021/07/30 08:05:18;;;;;;;3.40;1.65;;;21.30;84.40;;;;;;4933906;28;20064;-79
2021/07/30 08:07:44;;;;;;;3.83;1.83;;;21.30;84.40;;;;;;4933617;29;20102;-80
2021/07/30 08:10:10;;;;;;;2.53;1.27;;;21.30;84.50;;;;;;4933687;28;20543;-80
2021/07/30 08:12:36;;;;;;;3.88;1.80;;;21.30;84.40;;;;;;4933419;29;20488;-81
2021/07/30 08:15:02;;;;;;;3.35;1.60;;;21.30;84.40;;;;;;4933533;29;20028;-79
2021/07/30 08:17:28;;;;;;;2.65;1.60;;;21.30;84.40;;;;;;4932634;28;20035;-80
2021/07/30 08:19:54;;;;;;;3.35;1.80;;;21.20;84.40;;;;;;4932315;29;20034;-82
2021/07/30 08:22:19;;;;;;;3.13;1.80;;;21.30;84.40;;;;;;4933415;29;20089;-82
2021/07/30 08:24:45;;;;;;;3.35;1.92;;;21.30;84.40;;;;;;4933230;29;20062;-80
2021/07/30 08:27:11;;;;;;;7.25;2.10;;;21.30;84.40;;;;;;4932592;29;20412;-82
2021/07/30 08:29:36;;;;;;;5.63;1.52;;;21.30;84.50;;;;;;4933349;29;20028;-78
2021/07/30 08:32:03;;;;;;;4.78;1.83;;;21.20;84.40;;;;;;4933466;29;20032;-78
2021/07/30 08:34:28;;;;;;;3.47;1.70;;;21.20;84.50;;;;;;4932446;28;20526;-79
2021/07/30 08:36:54;;;;;;;3.60;1.77;;;21.20;84.50;;;;;;4933680;28;20063;-78
2021/07/30 08:39:20;;;;;;;3.30;1.50;;;21.30;84.70;;;;;;4933065;28;20059;-79
2021/07/30 08:41:49;;;;;;;2.20;1.48;;;21.20;84.70;;;;;;4933161;29;20028;-78
2021/07/30 08:44:14;;;;;;;3.67;1.85;;;21.30;84.70;;;;;;4933163;28;20020;-79
2021/07/30 08:46:41;;;;;;;3.95;1.95;;;21.30;84.70;;;;;;4932818;29;20082;-78
2021/07/30 08:49:09;;;;;;;2.25;1.42;;;21.30;84.70;;;;;;4933159;28;20487;-78
2021/07/30 08:51:42;;;;;;;3.22;1.67;;;21.30;84.70;;;;;;4932944;28;20051;-78
2021/07/30 08:54:08;;;;;;;2.85;1.60;;;21.20;84.70;;;;;;4932860;29;20032;-82
2021/07/30 08:56:37;;;;;;;2.08;1.48;;;21.30;84.80;;;;;;4932732;29;20036;-81
2021/07/30 08:59:12;;;;;;;2.63;1.60;;;21.30;84.80;;;;;;4932934;29;20525;-80
2021/07/30 09:01:37;;;;;;;2.63;1.67;;;21.20;84.70;;;;;;4932921;29;20028;-84
2021/07/30 09:04:03;;;;;;;2.10;1.50;;;21.30;84.90;;;;;;4932679;28;20391;-83
2021/07/30 09:06:29;;;;;;;3.10;1.88;;;21.20;84.80;;;;;;4932674;28;20039;-83
2021/07/30 09:08:54;;;;;;;3.85;1.60;;;21.30;84.80;;;;;;4931765;29;20028;-82
2021/07/30 09:11:34;;;;;;;2.28;1.30;;;21.20;85.50;;;;;;4913768;29;20064;-81
2021/07/30 09:14:05;;;;;;;2.72;1.58;;;21.30;84.90;;;;;;4917040;29;20028;-80
2021/07/30 09:16:46;;;;;;;2.00;1.60;;;21.20;84.80;;;;;;4931880;28;20078;-83
2021/07/30 09:19:12;;;;;;;3.05;1.83;;;21.30;84.90;;;;;;4931141;29;20492;-79
2021/07/30 09:21:37;;;;;;;2.92;1.70;;;21.30;84.90;;;;;;4932048;29;20038;-78
2021/07/30 09:24:07;;;;;;;3.88;1.75;;;21.20;84.90;;;;;;4932524;29;20042;-82
2021/07/30 09:26:41;;;;;;;3.83;1.73;;;21.20;84.90;;;;;;4930073;29;20024;-81
2021/07/30 09:29:11;;;;;;;2.17;1.67;;;21.30;85.00;;;;;;4930437;29;20038;-78
2021/07/30 09:31:39;;;;;;;3.25;1.90;;;21.30;85.10;;;;;;4927317;29;20059;-77
2021/07/30 09:34:16;;;;;;;4.68;1.55;;;21.30;85.20;;;;;;4933632;28;20020;-85
2021/07/30 09:36:55;;;;;;;2.40;1.50;;;21.30;85.30;;;;;;4928890;28;20027;-85
2021/07/30 09:39:33;;;;;;;2.72;1.58;;;21.40;85.40;;;;;;4927614;29;20127;-75
2021/07/30 09:42:09;;;;;;;4.38;2.30;;;21.40;85.40;;;;;;4943633;29;20099;-80
2021/07/30 09:44:41;;;;;;;9.30;2.85;;;21.40;85.60;;;;;;4928404;28;20109;-85
2021/07/30 09:47:11;;;;;;;6.05;2.58;;;21.50;86.20;;;;;;4930349;29;20098;-77
2021/07/30 09:49:50;;;;;;;7.93;2.58;;;21.50;86.20;;;;;;4929619;28;20078;-81
2021/07/30 09:52:25;;;;;;;5.13;2.40;;;21.50;86.30;;;;;;4929795;29;20020;-79
2021/07/30 09:54:59;;;;;;;3.83;2.92;;;21.50;86.40;;;;;;4930034;29;20024;-77
2021/07/30 09:57:27;;;;;;;3.85;2.13;;;21.60;86.50;;;;;;4931387;29;20067;-76
2021/07/30 09:59:57;;;;;;;4.72;2.28;;;21.60;86.50;;;;;;4929047;29;20032;-83
2021/07/30 10:02:26;;;;;;;5.95;2.17;;;21.70;86.60;;;;;;4922363;29;20058;-83
2021/07/30 10:04:52;;;;;;;5.15;2.28;;;21.70;86.60;;;;;;4931099;28;20043;-78
2021/07/30 10:07:22;;;;;;;7.10;2.42;;;21.70;86.80;;;;;;4931718;29;20436;-80
2021/07/30 10:12:30;;;;;;;8.35;2.42;;;21.70;87.20;;;;;;4933678;29;20067;-77
2021/07/30 10:14:59;;;;;;;5.63;2.50;;;21.60;86.60;;;;;;4931198;29;20035;-80
2021/07/30 10:17:33;;;;;;;4.50;2.05;;;21.80;87.40;;;;;;4931478;29;20043;-79
2021/07/30 10:20:03;;;;;;;9.57;2.90;;;21.80;87.50;;;;;;4932382;29;20062;-76
2021/07/30 10:22:36;;;;;;;10.40;2.65;;;21.80;87.50;;;;;;4932342;28;20062;-78
2021/07/30 10:25:02;;;;;;;9.40;4.72;;;21.80;87.70;;;;;;4930038;28;20044;-76
2021/07/30 10:27:29;;;;;;;8.55;3.55;;;21.80;88.00;;;;;;4930373;29;20030;-76
2021/07/30 10:30:06;;;;;;;8.50;4.07;;;21.80;88.40;;;;;;4929853;29;20051;-78
2021/07/30 10:32:51;;;;;;;11.25;4.60;;;21.80;88.60;;;;;;4928031;28;20024;-80
2021/07/30 10:35:25;;;;;;;9.52;4.85;;;21.80;88.70;;;;;;4928519;29;20051;-76
2021/07/30 10:37:52;;;;;;;5.82;3.60;;;21.80;89.40;;;;;;4943251;29;20032;-79
2021/07/30 10:40:23;;;;;;;6.60;4.03;;;21.80;89.60;;;;;;4929745;29;20865;-80
2021/07/30 10:43:01;;;;;;;12.95;4.18;;;21.80;90.10;;;;;;4926040;29;20093;-78
2021/07/30 10:45:27;;;;;;;5.25;3.40;;;21.90;90.20;;;;;;4927839;28;20130;-78
2021/07/30 10:48:11;;;;;;;6.07;3.88;;;21.90;90.40;;;;;;4931735;28;20079;-75
2021/07/30 10:50:48;;;;;;;8.80;4.05;;;21.90;90.30;;;;;;4940140;29;20034;-76
2021/07/30 10:53:38;;;;;;;7.05;3.35;;;21.90;90.40;;;;;;4931249;28;20031;-81
2021/07/30 10:56:07;;;;;;;5.93;2.83;;;21.90;90.80;;;;;;4931283;29;20111;-80
2021/07/30 10:58:39;;;;;;;6.18;3.20;;;21.90;90.80;;;;;;4929484;29;20043;-77
2021/07/30 11:01:05;;;;;;;5.32;3.10;;;22.00;91.10;;;;;;4930230;29;20027;-81
2021/07/30 11:06:26;;;;;;;5.30;2.90;;;22.00;91.30;;;;;;4928526;29;20032;-83
2021/07/30 11:09:06;;;;;;;;;;;22.00;91.30;;;;;;4930338;29;20383;-78
2021/07/30 11:11:52;;;;;;;5.80;2.53;;;22.00;91.40;;;;;;4928883;29;19914;-80
2021/07/30 11:14:26;;;;;;;5.00;2.78;;;22.00;91.60;;;;;;4948872;29;20028;-80
2021/07/30 11:16:51;;;;;;;4.38;2.90;;;22.10;91.70;;;;;;4948793;29;20036;-79
2021/07/30 11:19:20;;;;;;;6.53;2.50;;;22.10;91.80;;;;;;4944736;29;20071;-77
2021/07/30 11:21:46;;;;;;;3.50;2.28;;;22.10;91.80;;;;;;4929318;28;20448;-78
2021/07/30 11:24:12;;;;;;;3.80;2.50;;;22.10;92.00;;;;;;4930804;29;20067;-82
2021/07/30 11:26:39;;;;;;;5.68;2.30;;;22.10;92.20;;;;;;4930773;28;20032;-80
2021/07/30 11:29:10;;;;;;;4.22;2.58;;;22.10;92.00;;;;;;4929728;28;20031;-77
2021/07/30 11:31:51;;;;;;;4.03;1.98;;;22.10;92.20;;;;;;4945819;29;20055;-79
2021/07/30 11:34:16;;;;;;;2.58;1.88;;;22.10;92.60;;;;;;4933966;29;20418;-76
2021/07/30 11:36:49;;;;;;;6.13;2.22;;;22.10;92.60;;;;;;4929539;29;20174;-80
2021/07/30 11:39:15;;;;;;;4.85;2.00;;;22.10;92.80;;;;;;4930786;28;20036;-79
2021/07/30 11:41:49;;;;;;;4.40;2.22;;;22.10;92.80;;;;;;4930561;29;20106;-84
2021/07/30 11:44:14;;;;;;;4.82;2.35;;;22.10;93.00;;;;;;4930635;29;20028;-78
2021/07/30 11:46:40;;;;;;;4.72;2.13;;;22.10;93.00;;;;;;4930467;29;20395;-77
2021/07/30 11:49:07;;;;;;;3.47;2.05;;;22.20;93.30;;;;;;4928852;28;20035;-75
2021/07/30 11:51:39;;;;;;;6.30;2.60;;;22.20;93.20;;;;;;4930339;29;20032;-82
2021/07/30 11:54:04;;;;;;;3.55;2.25;;;22.30;93.10;;;;;;4930237;29;20032;-76
2021/07/30 11:56:42;;;;;;;6.57;2.15;;;22.30;93.10;;;;;;4932633;29;20077;-78
2021/07/30 11:59:08;;;;;;;3.55;1.80;;;22.30;93.30;;;;;;4921645;29;20058;-81
2021/07/30 12:01:33;;;;;;;3.92;2.30;;;22.30;93.10;;;;;;4926876;28;20559;-76
2021/07/30 12:04:13;;;;;;;3.63;1.80;;;22.30;93.10;;;;;;4933269;29;20074;-81
2021/07/30 12:06:46;;;;;;;3.78;2.03;;;22.30;93.00;;;;;;4933561;29;20507;-76
2021/07/30 12:09:13;;;;;;;3.58;1.67;;;22.30;93.00;;;;;;4925166;28;20020;-79
2021/07/30 12:11:44;;;;;;;3.03;1.70;;;22.30;93.10;;;;;;4928357;29;20035;-78
2021/07/30 12:14:11;;;;;;;3.22;1.60;;;22.30;93.20;;;;;;4934160;28;20056;-75
2021/07/30 12:16:40;;;;;;;3.33;1.60;;;22.30;93.60;;;;;;4931019;29;20372;-78
2021/07/30 12:19:06;;;;;;;5.07;1.75;;;22.30;93.30;;;;;;4932834;29;20512;-75
2021/07/30 12:21:32;;;;;;;3.67;2.05;;;22.30;93.20;;;;;;4931433;28;20036;-74
2021/07/30 12:24:07;;;;;;;4.53;1.52;;;22.40;93.00;;;;;;4934113;28;20110;-74
2021/07/30 12:26:36;;;;;;;2.83;1.55;;;22.40;92.90;;;;;;4932559;28;20034;-78
2021/07/30 12:29:02;;;;;;;4.03;1.50;;;22.50;92.80;;;;;;4934058;29;20105;-83
2021/07/30 12:31:28;;;;;;;2.70;1.17;;;22.50;92.70;;;;;;4948968;29;20031;-81
2021/07/30 12:34:16;;;;;;;3.35;1.77;;;22.50;92.60;;;;;;4934136;29;20028;-83
2021/07/30 12:36:43;;;;;;;3.67;1.20;;;22.60;92.50;;;;;;4933650;29;20042;-79
2021/07/30 12:39:10;;;;;;;2.33;1.50;;;22.70;92.40;;;;;;4933729;28;20506;-80
2021/07/30 12:41:36;;;;;;;3.95;1.40;;;22.70;92.20;;;;;;4933573;29;20150;-80
2021/07/30 12:44:12;;;;;;;3.17;1.30;;;22.70;92.10;;;;;;4933558;28;20368;-82
2021/07/30 12:46:46;;;;;;;2.17;1.10;;;22.80;92.00;;;;;;4933366;29;20020;-82
2021/07/30 12:49:13;;;;;;;2.45;1.42;;;22.80;92.00;;;;;;4933299;29;20085;-80
2021/07/30 12:51:42;;;;;;;1.63;1.00;;;22.80;91.90;;;;;;4933342;28;20434;-82
2021/07/30 12:54:10;;;;;;;2.15;1.50;;;22.80;91.80;;;;;;4933709;29;20431;-78